Time;durP1;ratioP1;P1;durP2;ratioP2;P2;SDS_P1;SDS_P2;PMS_P1;PMS_P2;Temp;Humidity;BMP_temperature;BMP_pressure;BME280_temperature;BME280_humidity;BME280_pressure;Samples;Min_cycle;Max_cycle;Signal;HPM_P1;HPM_P2
2021/09/13 00:00:47;;;;;;;2.00;1.80;;;;;;;14.14;90.50;95716.38;5034648;28;20270;-68
2021/09/13 00:03:16;;;;;;;1.67;1.57;;;;;;;14.13;90.95;95720.03;5050866;28;20297;-68
2021/09/13 00:05:44;;;;;;;2.63;1.60;;;;;;;14.07;91.19;95715.53;5044852;28;20231;-68
2021/09/13 00:08:13;;;;;;;2.50;1.63;;;;;;;14.02;91.97;95716.16;5043699;28;20214;-67
2021/09/13 00:10:43;;;;;;;4.70;3.67;;;;;;;14.00;92.70;95718.22;5042751;28;20247;-68
2021/09/13 00:13:12;;;;;;;2.60;1.80;;;;;;;13.93;93.17;95718.19;5044341;28;20231;-68
2021/09/13 00:15:41;;;;;;;2.20;2.10;;;;;;;13.88;93.31;95717.16;5040532;28;20231;-68
2021/09/13 00:18:11;;;;;;;1.63;1.53;;;;;;;13.84;93.58;95716.75;5045759;28;20211;-68
2021/09/13 00:20:40;;;;;;;3.03;2.37;;;;;;;13.80;93.81;95717.34;5040996;28;20623;-67
2021/09/13 00:23:09;;;;;;;2.20;2.10;;;;;;;13.81;93.68;95719.84;5036950;28;20215;-68
2021/09/13 00:25:37;;;;;;;2.10;2.00;;;;;;;13.81;93.72;95721.66;5039011;28;20230;-68
2021/09/13 00:28:07;;;;;;;2.03;1.93;;;;;;;13.82;93.89;95718.81;5027353;28;20227;-69
2021/09/13 00:30:35;;;;;;;2.07;1.97;;;;;;;13.85;94.06;95718.41;5027195;28;20238;-68
2021/09/13 00:33:04;;;;;;;2.37;2.27;;;;;;;13.87;94.15;95720.84;5025193;28;20230;-68
2021/09/13 00:35:33;;;;;;;1.47;1.40;;;;;;;13.89;94.37;95719.59;5034265;28;20254;-68
2021/09/13 00:38:02;;;;;;;2.20;2.10;;;;;;;13.93;94.48;95720.84;5035624;28;20222;-68
2021/09/13 00:40:31;;;;;;;1.40;1.40;;;;;;;13.95;94.50;95726.78;5043622;28;20316;-68
2021/09/13 00:43:03;;;;;;;2.53;2.43;;;;;;;13.97;94.53;95718.59;5043765;28;20261;-68
2021/09/13 00:45:34;;;;;;;1.77;1.67;;;;;;;13.97;94.45;95721.25;5034759;28;20230;-68
2021/09/13 00:48:02;;;;;;;1.17;1.17;;;;;;;13.97;94.09;95721.25;5046442;28;20242;-68
2021/09/13 00:50:30;;;;;;;1.30;1.20;;;;;;;13.94;93.82;95716.38;5036922;28;20230;-68
2021/09/13 00:52:58;;;;;;;0.83;0.83;;;;;;;13.92;93.75;95719.22;5041851;28;20331;-68
2021/09/13 00:55:27;;;;;;;1.20;1.20;;;;;;;13.91;93.75;95722.09;5024261;28;20227;-68
2021/09/13 00:57:55;;;;;;;1.33;1.33;;;;;;;13.89;93.56;95714.31;5024421;28;20712;-67
2021/09/13 01:00:24;;;;;;;1.77;1.17;;;;;;;13.88;93.42;95711.88;5042717;28;20222;-68
2021/09/13 01:02:54;;;;;;;1.43;1.33;;;;;;;13.83;93.06;95715.13;5044463;28;20222;-68
2021/09/13 01:05:22;;;;;;;1.50;1.40;;;;;;;13.79;92.91;95713.06;5041374;28;20327;-68
2021/09/13 01:07:51;;;;;;;2.13;2.00;;;;;;;13.75;92.11;95707.38;5039995;28;20238;-68
2021/09/13 01:10:22;;;;;;;2.33;1.40;;;;;;;13.68;92.02;95711.84;5023543;28;20219;-69
2021/09/13 01:12:50;;;;;;;1.03;1.03;;;;;;;13.61;92.09;95711.81;5043441;28;20218;-68
2021/09/13 01:15:18;;;;;;;2.50;1.90;;;;;;;13.56;92.16;95713.47;5023095;28;20230;-67
2021/09/13 01:17:46;;;;;;;1.37;1.27;;;;;;;13.51;92.17;95715.88;5034480;28;20231;-68
2021/09/13 01:20:17;;;;;;;1.50;1.40;;;;;;;13.50;92.26;95703.66;5029268;28;20312;-68
2021/09/13 01:22:53;;;;;;;1.80;1.70;;;;;;;13.47;92.51;95709.38;5024557;28;20297;-69
2021/09/13 01:25:23;;;;;;;1.30;1.30;;;;;;;13.45;92.54;95703.44;5027113;28;20304;-69
2021/09/13 01:27:51;;;;;;;0.50;0.50;;;;;;;13.46;92.20;95713.03;5024478;28;20289;-69
2021/09/13 01:30:23;;;;;;;0.87;0.87;;;;;;;13.40;91.96;95709.34;5038809;28;20238;-69
2021/09/13 01:32:51;;;;;;;1.00;1.00;;;;;;;13.33;91.92;95709.31;5041203;28;20280;-68
2021/09/13 01:35:19;;;;;;;1.13;1.13;;;;;;;13.27;92.16;95710.13;5022287;28;20223;-69
2021/09/13 01:37:48;;;;;;;0.80;0.77;;;;;;;13.25;92.53;95704.19;5030963;28;20227;-68
2021/09/13 01:40:17;;;;;;;1.30;1.30;;;;;;;13.22;93.20;95707.25;5025708;28;20273;-69
2021/09/13 01:42:46;;;;;;;0.80;0.80;;;;;;;13.24;93.53;95709.69;5026103;28;20268;-69
2021/09/13 01:45:14;;;;;;;0.50;0.50;;;;;;;13.26;93.65;95708.50;5023413;28;20723;-69
2021/09/13 01:47:45;;;;;;;1.00;1.00;;;;;;;13.26;93.81;95713.78;5041848;28;20219;-69
2021/09/13 01:50:15;;;;;;;0.70;0.70;;;;;;;13.24;93.92;95704.38;5020001;28;20317;-68
2021/09/13 01:52:44;;;;;;;0.90;0.90;;;;;;;13.19;93.55;95699.69;5039012;28;20214;-69
2021/09/13 01:55:12;;;;;;;1.67;1.57;;;;;;;13.19;93.26;95698.84;5043500;28;20272;-69
2021/09/13 01:57:40;;;;;;;1.63;1.40;;;;;;;13.16;93.11;95702.69;5042292;28;20684;-69
2021/09/13 02:00:12;;;;;;;1.20;1.17;;;;;;;13.14;92.82;95693.31;5040743;28;21912;-69
2021/09/13 02:02:41;;;;;;;1.23;1.20;;;;;;;13.08;92.80;95694.94;5043324;28;20696;-69
2021/09/13 02:05:16;;;;;;;1.87;1.77;;;;;;;13.01;92.45;95699.41;5027480;28;20315;-69
2021/09/13 02:07:51;;;;;;;1.47;1.47;;;;;;;12.96;92.33;95688.56;5041909;28;20280;-69
2021/09/13 02:10:20;;;;;;;1.80;1.70;;;;;;;12.82;92.06;95700.94;5030569;28;20231;-69
2021/09/13 02:12:48;;;;;;;1.23;1.23;;;;;;;12.80;92.19;95701.16;5029128;28;20258;-69
2021/09/13 02:15:20;;;;;;;1.23;1.17;;;;;;;12.78;92.31;95695.22;5030224;28;20600;-69
2021/09/13 02:17:50;;;;;;;0.50;0.50;;;;;;;12.77;92.44;95693.56;5037662;28;20229;-69
2021/09/13 02:20:19;;;;;;;1.23;0.87;;;;;;;12.78;92.85;95694.41;5023254;28;20242;-68
2021/09/13 02:22:48;;;;;;;0.40;0.40;;;;;;;12.80;93.11;95703.78;5025935;28;20234;-69
2021/09/13 02:25:18;;;;;;;0.93;0.93;;;;;;;12.84;93.24;95703.41;5045856;28;20246;-69
2021/09/13 02:27:48;;;;;;;0.70;0.67;;;;;;;12.89;93.41;95700.97;5028548;28;20635;-68
2021/09/13 02:30:17;;;;;;;1.90;0.77;;;;;;;12.91;93.76;95705.06;5045956;28;20710;-69
2021/09/13 02:32:48;;;;;;;5.60;2.40;;;;;;;12.94;93.79;95709.13;5029856;28;20749;-68
2021/09/13 02:35:17;;;;;;;1.77;1.67;;;;;;;12.96;93.78;95699.16;5028644;28;20231;-69
2021/09/13 02:37:45;;;;;;;0.80;0.80;;;;;;;12.95;93.66;95693.03;5029061;28;20599;-69
2021/09/13 02:40:14;;;;;;;1.07;1.07;;;;;;;12.90;93.69;95702.63;5021687;28;20722;-69
2021/09/13 02:42:44;;;;;;;1.50;1.40;;;;;;;12.78;93.85;95695.22;5036949;28;20219;-69
2021/09/13 02:45:13;;;;;;;2.00;1.90;;;;;;;12.76;93.83;95699.88;5031038;28;20250;-69
2021/09/13 02:47:41;;;;;;;1.63;1.53;;;;;;;12.72;93.70;95701.31;5029230;28;20305;-69
2021/09/13 02:50:14;;;;;;;1.10;1.10;;;;;;;12.70;93.64;95700.66;5043820;28;20746;-68
2021/09/13 02:52:42;;;;;;;1.23;1.23;;;;;;;12.67;93.63;95693.13;5035711;28;20247;-69
2021/09/13 02:55:12;;;;;;;1.10;1.10;;;;;;;12.66;93.57;95696.78;5023956;28;20230;-69
2021/09/13 02:57:41;;;;;;;0.87;0.87;;;;;;;12.67;93.47;95698.41;5020944;28;20235;-68
2021/09/13 03:00:11;;;;;;;1.30;1.20;;;;;;;12.63;93.39;95701.66;5021281;28;20219;-69
2021/09/13 03:02:47;;;;;;;1.53;1.43;;;;;;;12.53;92.83;95702.03;5021290;28;20218;-68
2021/09/13 03:05:16;;;;;;;1.87;1.77;;;;;;;12.49;92.64;95696.28;5026244;28;20231;-68
2021/09/13 03:07:46;;;;;;;1.30;1.30;;;;;;;12.44;92.42;95687.31;5044562;28;20361;-69
2021/09/13 03:10:15;;;;;;;2.03;1.93;;;;;;;12.42;92.51;95689.31;5031721;28;20718;-69
2021/09/13 03:12:44;;;;;;;1.73;1.63;;;;;;;12.41;92.80;95685.84;5043802;28;20227;-69
2021/09/13 03:15:12;;;;;;;1.70;1.37;;;;;;;12.42;93.09;95684.81;5020987;28;20657;-69
2021/09/13 03:17:40;;;;;;;1.77;1.67;;;;;;;12.45;93.38;95683.66;5021153;28;20251;-68
2021/09/13 03:20:10;;;;;;;1.00;1.00;;;;;;;12.49;93.46;95690.16;5037163;28;20223;-68
2021/09/13 03:22:40;;;;;;;0.50;0.50;;;;;;;12.52;93.62;95689.78;5027633;28;20219;-69
2021/09/13 03:25:10;;;;;;;0.30;0.30;;;;;;;12.50;93.96;95692.63;5045763;28;20277;-69
2021/09/13 03:27:38;;;;;;;0.67;0.67;;;;;;;12.50;93.97;95694.44;5044670;28;20570;-69
2021/09/13 03:30:08;;;;;;;0.87;0.83;;;;;;;12.49;93.77;95692.81;5025273;28;20742;-69
2021/09/13 03:32:37;;;;;;;0.93;0.93;;;;;;;12.46;93.66;95698.50;5027033;28;20676;-69
2021/09/13 03:35:07;;;;;;;0.70;0.70;;;;;;;12.42;93.53;95702.53;5024233;28;20238;-69
2021/09/13 03:37:37;;;;;;;1.83;1.70;;;;;;;12.37;93.23;95689.91;5031679;28;20226;-69
2021/09/13 03:40:10;;;;;;;1.10;1.10;;;;;;;12.34;92.96;95698.22;5028976;28;20230;-69
2021/09/13 03:42:40;;;;;;;1.30;1.20;;;;;;;12.33;92.91;95687.81;5028562;28;20596;-68
2021/09/13 03:45:11;;;;;;;1.37;1.27;;;;;;;12.33;92.75;95690.47;5028172;28;20241;-69
2021/09/13 03:47:57;;;;;;;1.43;1.33;;;;;;;12.30;92.63;95693.50;5021385;28;20216;-69
2021/09/13 03:50:25;;;;;;;0.73;0.70;;;;;;;12.28;92.27;95688.41;5024996;28;20600;-69
2021/09/13 03:52:53;;;;;;;1.07;0.97;;;;;;;12.20;91.78;95691.22;5029936;28;20265;-69
2021/09/13 03:55:23;;;;;;;0.83;0.83;;;;;;;12.07;91.62;95686.66;5028369;28;20222;-69
2021/09/13 03:57:52;;;;;;;1.00;1.00;;;;;;;11.99;91.77;95681.50;5025940;28;20302;-69
2021/09/13 04:00:20;;;;;;;0.80;0.80;;;;;;;11.96;92.11;95693.25;5045580;28;20221;-69
2021/09/13 04:02:51;;;;;;;0.77;0.77;;;;;;;11.97;92.09;95686.13;5031641;28;20314;-69
2021/09/13 04:05:22;;;;;;;1.10;1.10;;;;;;;11.95;92.28;95688.16;5041921;28;20220;-69
2021/09/13 04:08:48;;;;;;;1.13;1.03;;;;;;;11.90;92.62;95685.28;4939563;28;20253;-69
2021/09/13 04:11:46;;;;;;;0.67;0.67;;;;;;;11.90;92.95;95685.28;4942127;29;20528;-69
2021/09/13 04:14:37;;;;;;;0.97;0.97;;;;;;;11.86;93.52;95684.03;5026885;28;20752;-69
2021/09/13 04:17:25;;;;;;;1.37;1.27;;;;;;;11.84;93.92;95680.75;5039683;28;20231;-69
2021/09/13 04:20:09;;;;;;;1.20;1.20;;;;;;;11.82;94.22;95682.78;5025172;28;20249;-69
2021/09/13 04:22:50;;;;;;;1.00;1.00;;;;;;;11.76;94.75;95683.50;5032488;28;20223;-69
2021/09/13 04:25:32;;;;;;;0.70;0.70;;;;;;;11.73;94.51;95684.72;5024862;28;20681;-68
2021/09/13 04:28:17;;;;;;;0.53;0.53;;;;;;;11.76;94.47;95683.50;5024828;28;20241;-69
2021/09/13 04:30:54;;;;;;;0.67;0.67;;;;;;;11.76;94.62;95680.84;5044106;28;20222;-69
2021/09/13 04:33:45;;;;;;;1.27;1.17;;;;;;;11.74;95.00;95683.69;5015775;28;20391;-67
2021/09/13 04:36:30;;;;;;;1.03;1.03;;;;;;;11.76;94.79;95680.84;5020526;28;20236;-68
2021/09/13 04:39:18;;;;;;;0.57;0.57;;;;;;;11.81;94.55;95683.78;5043041;28;20691;-67
2021/09/13 04:42:06;;;;;;;0.40;0.40;;;;;;;11.80;94.46;95685.63;5041048;28;20231;-67
2021/09/13 04:44:59;;;;;;;0.90;0.90;;;;;;;11.80;94.33;95687.44;5035775;28;20327;-67
2021/09/13 04:47:41;;;;;;;0.60;0.60;;;;;;;11.78;94.58;95689.41;5024969;28;20234;-67
2021/09/13 04:50:29;;;;;;;0.30;0.30;;;;;;;11.78;94.35;95687.59;5033262;28;20246;-68
2021/09/13 04:53:10;;;;;;;0.80;0.40;;;;;;;11.78;94.63;95681.47;5026551;28;20230;-67
2021/09/13 04:55:38;;;;;;;0.60;0.60;;;;;;;11.82;94.84;95682.78;5025204;28;20229;-67
2021/09/13 04:58:06;;;;;;;0.30;0.30;;;;;;;11.83;95.03;95679.13;5040131;28;20505;-67
2021/09/13 05:00:35;;;;;;;0.87;0.87;;;;;;;11.87;95.17;95680.38;5019703;28;20776;-67
2021/09/13 05:03:04;;;;;;;0.80;0.80;;;;;;;11.89;94.94;95683.66;5044379;28;20593;-67
2021/09/13 05:05:35;;;;;;;0.30;0.30;;;;;;;11.91;94.84;95684.28;5042452;28;20218;-67
2021/09/13 05:08:04;;;;;;;0.47;0.47;;;;;;;11.91;94.75;95684.28;5024931;28;20220;-70
2021/09/13 05:10:33;;;;;;;0.60;0.60;;;;;;;11.90;94.69;95694.03;5027689;28;20264;-70
2021/09/13 05:13:01;;;;;;;0.70;0.70;;;;;;;11.94;94.44;95692.63;5022631;28;20230;-70
2021/09/13 05:15:29;;;;;;;0.87;0.87;;;;;;;11.95;93.63;95693.44;5043545;28;20742;-70
2021/09/13 05:17:59;;;;;;;0.90;0.90;;;;;;;11.88;93.25;95692.56;5026116;28;20239;-70
2021/09/13 05:20:28;;;;;;;1.10;1.00;;;;;;;11.82;93.10;95706.59;5025776;28;20454;-70
2021/09/13 05:22:56;;;;;;;0.90;0.90;;;;;;;11.73;93.16;95699.75;5017304;28;22724;-70
2021/09/13 05:25:25;;;;;;;1.80;1.70;;;;;;;11.71;93.21;95701.78;5037985;28;20308;-70
2021/09/13 05:27:53;;;;;;;1.10;1.07;;;;;;;11.75;93.18;95703.03;5024535;28;20281;-70
2021/09/13 05:30:25;;;;;;;1.37;1.27;;;;;;;11.81;93.21;95702.31;5025477;28;20230;-70
2021/09/13 05:32:53;;;;;;;1.97;1.87;;;;;;;11.85;93.44;95704.34;5041060;28;20229;-70
2021/09/13 05:35:23;;;;;;;5.47;1.70;;;;;;;11.91;93.45;95706.25;5042237;28;20237;-70
2021/09/13 05:37:51;;;;;;;2.53;1.40;;;;;;;12.00;93.49;95699.00;5040935;28;20314;-70
2021/09/13 05:40:21;;;;;;;0.90;0.90;;;;;;;12.06;93.39;95700.84;5024894;28;20222;-70
2021/09/13 05:42:49;;;;;;;0.97;0.97;;;;;;;12.12;93.38;95701.94;5042769;28;20222;-70
2021/09/13 05:45:17;;;;;;;1.33;1.23;;;;;;;12.19;93.17;95697.50;5041031;28;20227;-70
2021/09/13 05:47:48;;;;;;;1.70;1.60;;;;;;;12.21;93.12;95701.59;5023352;28;20237;-70
2021/09/13 05:50:17;;;;;;;2.33;2.13;;;;;;;12.29;93.19;95699.81;5041919;28;20222;-70
2021/09/13 05:52:46;;;;;;;3.30;2.40;;;;;;;12.32;93.10;95699.41;5041117;28;21011;-70
2021/09/13 05:55:14;;;;;;;2.17;2.07;;;;;;;12.41;92.99;95698.25;5023252;28;20782;-70
2021/09/13 05:57:47;;;;;;;2.00;1.90;;;;;;;12.47;92.96;95706.25;5025177;28;20463;-70
2021/09/13 06:00:20;;;;;;;1.90;1.80;;;;;;;12.58;92.73;95710.19;5023628;28;20546;-70
2021/09/13 06:02:54;;;;;;;1.90;1.80;;;;;;;12.68;92.34;95702.69;5022869;28;20229;-70
2021/09/13 06:05:38;;;;;;;1.97;1.87;;;;;;;12.77;92.03;95706.81;5022741;28;20715;-70
2021/09/13 06:08:08;;;;;;;2.83;2.53;;;;;;;12.86;92.01;95709.31;5037801;28;20223;-70
2021/09/13 06:10:36;;;;;;;2.03;1.93;;;;;;;12.95;91.92;95706.28;5038551;28;20233;-70
2021/09/13 06:13:05;;;;;;;3.00;2.03;;;;;;;13.03;91.76;95706.13;5023176;28;20277;-70
2021/09/13 06:15:33;;;;;;;2.53;2.33;;;;;;;13.12;91.73;95700.66;5024272;28;20222;-70
2021/09/13 06:18:04;;;;;;;1.97;1.87;;;;;;;13.24;91.48;95710.50;5024480;28;20729;-70
2021/09/13 06:20:33;;;;;;;2.80;2.50;;;;;;;13.35;91.48;95712.59;5020293;28;20606;-70
2021/09/13 06:23:01;;;;;;;2.47;2.37;;;;;;;13.46;91.60;95713.03;5021133;28;20225;-70
2021/09/13 06:25:36;;;;;;;2.53;2.43;;;;;;;13.58;91.91;95719.38;5026379;28;20310;-70
2021/09/13 06:28:05;;;;;;;2.20;2.10;;;;;;;13.71;91.93;95714.06;5040998;28;20230;-70
2021/09/13 06:30:34;;;;;;;3.20;2.90;;;;;;;13.84;91.92;95711.47;5021243;28;20616;-70
2021/09/13 06:33:04;;;;;;;2.90;2.63;;;;;;;13.99;92.00;95713.94;5019552;28;20218;-70
2021/09/13 06:35:37;;;;;;;2.90;2.70;;;;;;;14.21;92.04;95711.88;5019445;28;20395;-70
2021/09/13 06:38:09;;;;;;;3.33;3.13;;;;;;;14.43;92.07;95715.94;5024465;28;20231;-70
2021/09/13 06:40:41;;;;;;;5.40;3.50;;;;;;;14.71;91.77;95715.72;5022858;28;20227;-70
2021/09/13 06:43:10;;;;;;;4.90;4.60;;;;;;;14.99;91.04;95704.78;5024024;28;20499;-70
2021/09/13 06:45:42;;;;;;;4.77;4.50;;;;;;;15.25;90.68;95706.53;5030777;28;20766;-67
2021/09/13 06:48:12;;;;;;;4.90;4.60;;;;;;;15.52;89.90;95707.22;5030933;28;20219;-68
2021/09/13 06:50:40;;;;;;;5.30;5.00;;;;;;;15.83;89.49;95705.63;5044980;28;20533;-68
2021/09/13 06:53:09;;;;;;;4.87;4.57;;;;;;;16.14;89.21;95708.25;5046073;28;20219;-68
2021/09/13 06:55:38;;;;;;;4.23;4.03;;;;;;;16.44;88.26;95704.91;5025727;28;20245;-68
2021/09/13 06:58:09;;;;;;;4.40;4.20;;;;;;;16.65;87.22;95699.22;5044367;28;20288;-68
2021/09/13 07:00:38;;;;;;;4.83;4.43;;;;;;;16.91;86.78;95708.78;5047096;28;20310;-68
2021/09/13 07:03:07;;;;;;;7.30;6.37;;;;;;;17.04;86.05;95708.66;5041548;28;20215;-68
2021/09/13 07:05:35;;;;;;;9.13;7.27;;;;;;;17.04;86.04;95710.50;5042339;28;20298;-69
2021/09/13 07:08:04;;;;;;;7.43;6.73;;;;;;;17.05;86.17;95712.13;5047638;28;20707;-68
2021/09/13 07:10:32;;;;;;;6.47;5.93;;;;;;;17.06;86.41;95716.41;5046676;28;20233;-68
2021/09/13 07:13:00;;;;;;;5.73;5.33;;;;;;;17.03;86.83;95716.88;5042578;28;20649;-68
2021/09/13 07:15:31;;;;;;;7.20;5.77;;;;;;;17.03;86.41;95727.53;5037332;28;20231;-68
2021/09/13 07:18:01;;;;;;;5.67;5.27;;;;;;;17.00;87.10;95725.28;5041547;28;20300;-68
2021/09/13 07:20:30;;;;;;;6.80;6.30;;;;;;;17.00;87.47;95722.63;5039619;28;20230;-68
2021/09/13 07:22:58;;;;;;;5.03;4.70;;;;;;;17.08;87.11;95727.66;5046321;28;20659;-67
2021/09/13 07:25:27;;;;;;;4.63;4.23;;;;;;;17.14;87.17;95729.44;5042706;28;20254;-66
2021/09/13 07:27:55;;;;;;;6.57;5.97;;;;;;;17.23;87.07;95728.13;5045656;28;20232;-66
2021/09/13 07:30:24;;;;;;;6.20;5.80;;;;;;;17.34;86.77;95735.34;5045961;28;20249;-66
2021/09/13 07:32:54;;;;;;;9.73;8.90;;;;;;;17.46;86.36;95731.91;5046275;28;20342;-67
2021/09/13 07:35:22;;;;;;;8.93;7.87;;;;;;;17.55;85.74;95733.25;5045508;28;20262;-66
2021/09/13 07:37:50;;;;;;;9.03;8.53;;;;;;;17.64;85.59;95738.03;5039241;28;20254;-66
2021/09/13 07:40:20;;;;;;;10.67;9.97;;;;;;;17.81;85.60;95740.94;5038218;28;20226;-66
2021/09/13 07:42:48;;;;;;;8.83;8.23;;;;;;;18.03;85.17;95737.75;5036048;28;20230;-66
2021/09/13 07:45:16;;;;;;;11.20;9.77;;;;;;;18.11;83.84;95740.09;5026683;28;20238;-67
2021/09/13 07:47:45;;;;;;;12.67;11.83;;;;;;;18.27;83.85;95752.78;5040065;28;20219;-67
2021/09/13 07:50:15;;;;;;;8.27;7.77;;;;;;;18.35;82.90;95752.44;5039836;28;20222;-65
2021/09/13 07:52:43;;;;;;;7.73;7.27;;;;;;;18.52;82.78;95749.09;5035842;28;20304;-66
2021/09/13 07:55:12;;;;;;;6.87;6.37;;;;;;;18.70;82.61;95749.03;5044768;28;20611;-66
2021/09/13 07:57:42;;;;;;;8.07;7.33;;;;;;;18.94;82.06;95749.84;5036715;28;20249;-66
2021/09/13 08:00:11;;;;;;;9.90;9.20;;;;;;;19.15;81.52;95751.09;5043427;28;20219;-67
2021/09/13 08:02:44;;;;;;;7.70;7.27;;;;;;;19.36;80.63;95753.13;5018787;28;20223;-66
2021/09/13 08:05:12;;;;;;;7.93;7.43;;;;;;;19.56;80.20;95758.13;5039544;28;20281;-66
2021/09/13 08:07:42;;;;;;;7.60;7.00;;;;;;;19.71;79.03;95758.41;5037116;28;20314;-66
2021/09/13 08:10:11;;;;;;;8.93;8.23;;;;;;;19.93;78.80;95752.38;5046223;28;20211;-65
2021/09/13 08:12:41;;;;;;;9.47;8.63;;;;;;;20.05;77.58;95756.66;5046195;28;20222;-65
2021/09/13 08:15:10;;;;;;;5.87;5.53;;;;;;;20.27;77.33;95754.06;5037166;28;20215;-65
2021/09/13 08:17:39;;;;;;;7.47;6.23;;;;;;;20.40;75.90;95759.13;5033926;28;20285;-66
2021/09/13 08:20:08;;;;;;;7.90;7.30;;;;;;;20.61;75.90;95757.63;5037096;28;20230;-67
2021/09/13 08:22:38;;;;;;;6.77;6.23;;;;;;;20.87;76.27;95763.38;5045321;28;20231;-67
2021/09/13 08:25:09;;;;;;;7.80;7.10;;;;;;;21.15;75.00;95763.25;5009294;28;20251;-66
2021/09/13 08:27:51;;;;;;;4.90;4.60;;;;;;;21.23;74.23;95760.13;5014523;28;20637;-67
2021/09/13 08:30:20;;;;;;;7.20;6.70;;;;;;;21.38;73.27;95769.47;5046825;28;20219;-67
2021/09/13 08:32:49;;;;;;;6.03;5.53;;;;;;;21.62;73.07;95773.53;5037121;28;20695;-67
2021/09/13 08:35:19;;;;;;;6.47;5.97;;;;;;;21.67;71.79;95765.56;5026382;28;20233;-66
2021/09/13 08:37:47;;;;;;;6.63;6.10;;;;;;;21.63;71.60;95777.84;5040213;28;20227;-66
2021/09/13 08:40:18;;;;;;;6.17;5.77;;;;;;;21.34;71.11;95769.16;5046993;28;20253;-67
2021/09/13 08:42:48;;;;;;;5.60;5.10;;;;;;;21.30;71.27;95773.38;5045852;28;20218;-66
2021/09/13 08:45:22;;;;;;;4.67;4.23;;;;;;;21.41;72.07;95774.34;5044483;28;20305;-67
2021/09/13 08:47:58;;;;;;;5.23;4.90;;;;;;;21.46;71.39;95775.22;5047460;28;20250;-66
2021/09/13 08:50:34;;;;;;;4.80;4.60;;;;;;;21.55;70.92;95770.22;5033520;28;20228;-67
2021/09/13 08:53:04;;;;;;;4.20;3.97;;;;;;;21.88;71.86;95774.66;5032938;28;20239;-67
2021/09/13 08:55:33;;;;;;;5.67;5.20;;;;;;;22.26;70.48;95775.59;5045787;28;20284;-67
2021/09/13 08:58:02;;;;;;;8.70;7.23;;;;;;;22.41;69.76;95779.25;5044899;28;20231;-67
2021/09/13 09:00:30;;;;;;;6.87;6.37;;;;;;;22.61;68.20;95773.22;5041434;28;20254;-67
2021/09/13 09:02:59;;;;;;;14.13;8.43;;;;;;;22.94;67.18;95774.84;5049211;28;20600;-66
2021/09/13 09:05:39;;;;;;;4.37;3.97;;;;;;;23.33;66.28;95779.94;5041016;28;20745;-67
2021/09/13 09:08:10;;;;;;;3.77;3.57;;;;;;;23.72;65.43;95776.91;5035361;28;20242;-67
2021/09/13 09:10:52;;;;;;;8.23;4.90;;;;;;;24.05;63.56;95776.50;5045350;28;20223;-67
2021/09/13 09:13:20;;;;;;;7.13;5.90;;;;;;;24.43;62.80;95777.13;5040039;28;20211;-68
2021/09/13 09:15:58;;;;;;;3.17;3.00;;;;;;;24.71;61.87;95773.09;5041265;28;20786;-67
2021/09/13 09:18:38;;;;;;;3.97;3.77;;;;;;;24.94;61.56;95771.72;5040519;28;20219;-67
2021/09/13 09:21:06;;;;;;;3.47;3.20;;;;;;;25.14;61.52;95769.00;5036754;28;20225;-67
2021/09/13 09:23:57;;;;;;;2.25;2.15;;;;;;;25.25;60.14;95767.13;5044757;28;20273;-68
2021/09/13 09:26:28;;;;;;;3.40;3.10;;;;;;;25.44;59.39;95760.03;5045526;28;20246;-67
2021/09/13 09:28:57;;;;;;;3.45;3.25;;;;;;;25.53;59.28;95763.00;5035385;28;20318;-67
2021/09/13 09:31:35;;;;;;;3.10;2.90;;;;;;;25.31;59.20;95765.19;5043127;28;20305;-67
2021/09/13 09:34:14;;;;;;;4.13;3.17;;;;;;;25.14;60.57;95765.50;5036048;28;20577;-67
2021/09/13 09:37:03;;;;;;;3.10;3.00;;;;;;;25.30;60.05;95755.47;5038964;28;20852;-67
2021/09/13 09:39:32;;;;;;;3.45;3.35;;;;;;;25.65;60.55;95760.78;5043966;28;20325;-67
2021/09/13 09:42:03;;;;;;;3.28;3.13;;;;;;;26.01;59.41;95755.22;5043009;28;20227;-67
2021/09/13 09:44:32;;;;;;;4.32;3.60;;;;;;;26.21;58.28;95760.50;5037550;28;20255;-67
2021/09/13 09:47:04;;;;;;;6.50;4.97;;;;;;;26.58;58.43;95751.09;5038127;28;20249;-67
2021/09/13 09:49:45;;;;;;;2.58;2.47;;;;;;;26.82;57.45;95749.25;5041233;28;20230;-67
2021/09/13 09:52:27;;;;;;;3.70;3.50;;;;;;;27.03;56.37;95746.38;5039812;28;20584;-67
2021/09/13 09:55:11;;;;;;;3.28;3.08;;;;;;;27.08;56.37;95744.44;5042781;28;20223;-67
2021/09/13 09:57:42;;;;;;;2.70;2.60;;;;;;;27.02;55.53;95742.84;5044472;28;20590;-67
2021/09/13 10:00:22;;;;;;;2.33;2.22;;;;;;;27.14;56.48;95743.28;5042843;28;20275;-67
2021/09/13 10:02:52;;;;;;;2.42;2.33;;;;;;;27.46;56.43;95739.16;5040064;28;20320;-67
2021/09/13 10:05:22;;;;;;;3.80;3.50;;;;;;;27.67;55.36;95735.13;5037958;28;20238;-68
2021/09/13 10:07:50;;;;;;;2.75;2.65;;;;;;;27.79;55.13;95729.28;5039952;28;20253;-68
2021/09/13 10:10:20;;;;;;;3.35;3.25;;;;;;;28.08;54.39;95731.09;5042829;28;20227;-67
2021/09/13 10:12:50;;;;;;;3.58;3.45;;;;;;;28.15;54.99;95728.78;5043539;28;20778;-67
2021/09/13 10:15:18;;;;;;;3.78;3.47;;;;;;;28.15;55.99;95735.03;5036876;28;20611;-68
2021/09/13 10:17:47;;;;;;;3.53;3.33;;;;;;;28.41;54.33;95727.34;5033985;28;20253;-67
2021/09/13 10:20:17;;;;;;;3.95;3.75;;;;;;;28.27;52.92;95721.03;5038950;28;20228;-67
2021/09/13 10:22:47;;;;;;;3.33;3.22;;;;;;;28.51;53.56;95716.31;5041281;28;20218;-67
2021/09/13 10:25:15;;;;;;;3.08;2.92;;;;;;;28.87;53.11;95723.88;5035641;28;21664;-67
2021/09/13 10:27:46;;;;;;;2.88;2.78;;;;;;;29.11;52.18;95712.91;5030753;28;20296;-67
2021/09/13 10:30:20;;;;;;;2.97;2.78;;;;;;;29.41;53.56;95722.38;5037611;28;20586;-67
2021/09/13 10:32:50;;;;;;;2.15;2.05;;;;;;;29.73;52.02;95719.59;5046102;28;20284;-67
2021/09/13 10:35:20;;;;;;;2.83;2.72;;;;;;;29.97;50.95;95719.31;5044477;28;20218;-67
2021/09/13 10:37:50;;;;;;;3.08;2.88;;;;;;;30.02;49.38;95712.97;5039223;28;20246;-67
2021/09/13 10:40:25;;;;;;;3.15;2.95;;;;;;;30.11;49.36;95711.16;5045506;28;20691;-67
2021/09/13 10:42:54;;;;;;;2.42;2.33;;;;;;;30.21;49.39;95708.22;5028980;28;20470;-67
2021/09/13 10:45:30;;;;;;;3.10;2.53;;;;;;;30.38;48.58;95709.47;5044415;28;20318;-67
2021/09/13 10:48:08;;;;;;;2.17;2.03;;;;;;;29.91;47.57;95714.31;5038483;28;20218;-67
2021/09/13 10:50:42;;;;;;;2.72;2.53;;;;;;;29.69;48.02;95707.69;5035837;28;20268;-67
2021/09/13 10:53:34;;;;;;;3.03;2.92;;;;;;;28.89;48.97;95716.25;5027996;28;20238;-67
2021/09/13 10:56:09;;;;;;;2.05;1.95;;;;;;;28.85;49.93;95709.78;5044314;28;20700;-66
2021/09/13 10:58:40;;;;;;;2.72;2.58;;;;;;;29.35;50.96;95718.13;5036272;28;20261;-67
2021/09/13 11:01:10;;;;;;;2.58;2.47;;;;;;;29.01;49.43;95708.47;5039238;28;20302;-66
2021/09/13 11:03:54;;;;;;;2.08;1.98;;;;;;;29.28;49.53;95710.41;5036157;28;20222;-67
2021/09/13 11:06:45;;;;;;;2.28;2.17;;;;;;;29.67;49.55;95701.75;5018422;28;20314;-67
2021/09/13 11:09:21;;;;;;;1.77;1.67;;;;;;;30.04;48.86;95697.13;5035979;28;20250;-69
2021/09/13 11:11:58;;;;;;;2.03;1.92;;;;;;;30.16;48.26;95705.59;5040479;28;20233;-68
2021/09/13 11:14:28;;;;;;;1.98;1.88;;;;;;;29.94;47.47;95700.91;5036705;28;20218;-68
2021/09/13 11:17:01;;;;;;;3.08;2.58;;;;;;;29.15;50.02;95695.69;5033111;28;20219;-69
2021/09/13 11:19:30;;;;;;;2.75;2.65;;;;;;;28.51;50.30;95700.03;5043912;28;20253;-68
2021/09/13 11:22:01;;;;;;;2.03;1.92;;;;;;;27.98;52.90;95686.72;5040710;28;20226;-68
2021/09/13 11:24:33;;;;;;;3.10;2.90;;;;;;;27.61;52.42;95697.50;5046619;28;20589;-69
2021/09/13 11:27:08;;;;;;;3.95;2.67;;;;;;;27.74;54.18;95696.81;5044666;28;20222;-69
2021/09/13 11:29:38;;;;;;;3.63;3.15;;;;;;;28.39;53.12;95686.13;5039018;28;20722;-69
2021/09/13 11:32:09;;;;;;;3.47;2.35;;;;;;;28.98;50.64;95684.59;5047087;28;20219;-69
2021/09/13 11:34:39;;;;;;;1.75;1.65;;;;;;;29.04;50.78;95680.66;5038165;28;20326;-67
2021/09/13 11:37:11;;;;;;;4.20;1.90;;;;;;;28.69;49.45;95681.28;5037781;28;20215;-66
2021/09/13 11:40:01;;;;;;;2.05;1.95;;;;;;;28.26;50.54;95676.00;5036110;28;20314;-66
2021/09/13 11:42:31;;;;;;;2.05;1.95;;;;;;;28.08;51.56;95679.53;5023905;28;20254;-66
2021/09/13 11:45:05;;;;;;;2.90;2.70;;;;;;;27.94;51.58;95674.03;5038327;28;20245;-66
2021/09/13 11:47:54;;;;;;;2.35;2.15;;;;;;;27.68;52.97;95673.56;5033416;28;20223;-67
2021/09/13 11:50:27;;;;;;;2.35;2.15;;;;;;;27.38;51.85;95678.28;5038887;28;20666;-67
2021/09/13 11:52:55;;;;;;;2.80;2.13;;;;;;;27.02;53.40;95677.03;5042965;28;20230;-66
2021/09/13 11:55:27;;;;;;;1.63;1.60;;;;;;;27.01;55.70;95678.13;5008949;28;20226;-66